Time;durP1;ratioP1;P1;durP2;ratioP2;P2;SDS_P1;SDS_P2;PMS_P1;PMS_P2;Temp;Humidity;BMP_temperature;BMP_pressure;BME280_temperature;BME280_humidity;BME280_pressure;Samples;Min_cycle;Max_cycle;Signal;HPM_P1;HPM_P2
2021/12/13 00:01:46;;;;;;;175.70;44.05;;;;;;;;;;5006049;28;20049;-60
2021/12/13 00:04:20;;;;;;;196.38;45.70;;;;;;;;;;5004678;28;20054;-60
2021/12/13 00:06:48;;;;;;;194.88;44.83;;;;;;;;;;5004116;28;20041;-61
2021/12/13 00:09:17;;;;;;;181.05;44.45;;;;;;;;;;5006291;28;20129;-61
2021/12/13 00:11:45;;;;;;;177.60;45.38;;;;;;;;;;5005237;28;20038;-61
2021/12/13 00:14:14;;;;;;;201.80;44.88;;;;;;;;;;5006654;28;20038;-61
2021/12/13 00:16:42;;;;;;;187.38;45.75;;;;;;;;;;5005233;28;20042;-61
2021/12/13 00:19:14;;;;;;;199.65;44.88;;;;;;;;;;5012402;28;20187;-61
2021/12/13 00:21:43;;;;;;;196.73;45.70;;;;;;;;;;5006178;28;20492;-63
2021/12/13 00:24:11;;;;;;;196.35;46.30;;;;;;;;;;5005045;28;20061;-62
2021/12/13 00:26:42;;;;;;;168.75;42.05;;;;;;;;;;5004767;28;20048;-63
2021/12/13 00:29:13;;;;;;;190.93;45.55;;;;;;;;;;5004069;28;20392;-63
2021/12/13 00:31:58;;;;;;;131.52;38.38;;;;;;;;;;5019533;28;20038;-63
2021/12/13 00:34:28;;;;;;;158.00;40.30;;;;;;;;;;4988752;28;20392;-62
2021/12/13 00:36:56;;;;;;;156.93;42.00;;;;;;;;;;5005911;28;20060;-62
2021/12/13 00:39:32;;;;;;;159.63;40.45;;;;;;;;;;4992079;28;20482;-63
2021/12/13 00:41:58;;;;;;;178.63;42.88;;;;;;;;;;5008709;28;20073;-62
2021/12/13 00:44:27;;;;;;;133.82;36.95;;;;;;;;;;5009370;28;20111;-62
2021/12/13 00:46:54;;;;;;;125.20;36.30;;;;;;;;;;5008946;28;20176;-62
2021/12/13 00:49:23;;;;;;;93.75;33.60;;;;;;;;;;5008597;28;20139;-62
2021/12/13 00:51:51;;;;;;;111.72;35.33;;;;;;;;;;5009377;28;20076;-62
2021/12/13 00:54:19;;;;;;;118.57;35.70;;;;;;;;;;5007119;28;20591;-63
2021/12/13 00:56:51;;;;;;;139.85;37.47;;;;;;;;;;5014835;28;20042;-62
2021/12/13 00:59:23;;;;;;;118.53;37.03;;;;;;;;;;5008669;28;20136;-62
2021/12/13 01:01:51;;;;;;;108.20;35.90;;;;;;;;;;5009767;28;20044;-62
2021/12/13 01:04:17;;;;;;;80.32;31.00;;;;;;;;;;5008872;28;20040;-62
2021/12/13 01:06:56;;;;;;;93.68;32.63;;;;;;;;;;5008554;28;20064;-62
2021/12/13 01:09:40;;;;;;;93.65;33.90;;;;;;;;;;5008472;28;20458;-62
2021/12/13 01:12:08;;;;;;;104.10;34.97;;;;;;;;;;5006596;28;20042;-62
2021/12/13 01:15:03;;;;;;;110.40;35.08;;;;;;;;;;5008285;28;20046;-63
2021/12/13 01:19:00;;;;;;;80.30;32.03;;;;;;;;;;5006249;28;20133;-62
2021/12/13 01:21:03;;;;;;;111.78;34.60;;;;;;;;;;5004805;28;20041;-61
2021/12/13 01:23:49;;;;;;;135.07;39.05;;;;;;;;;;5010439;28;20050;-60
2021/12/13 01:28:45;;;;;;;116.15;36.97;;;;;;;;;;5011022;28;20045;-61
2021/12/13 01:31:24;;;;;;;98.88;36.10;;;;;;;;;;5010137;28;20053;-60
2021/12/13 01:33:51;;;;;;;91.72;34.72;;;;;;;;;;5017842;28;20064;-63
2021/12/13 01:36:22;;;;;;;98.82;35.75;;;;;;;;;;5010163;28;20492;-61
2021/12/13 01:38:51;;;;;;;108.72;36.53;;;;;;;;;;5009263;28;20073;-62
2021/12/13 01:41:20;;;;;;;111.75;37.50;;;;;;;;;;5009130;28;20050;-63
2021/12/13 01:43:51;;;;;;;102.20;35.78;;;;;;;;;;5015598;28;20042;-62
2021/12/13 01:46:18;;;;;;;112.50;38.55;;;;;;;;;;5006643;28;20239;-63
2021/12/13 01:48:45;;;;;;;126.88;39.10;;;;;;;;;;4992725;28;20067;-61
2021/12/13 01:51:15;;;;;;;109.50;37.67;;;;;;;;;;5009785;28;20068;-61
2021/12/13 01:53:44;;;;;;;139.82;42.25;;;;;;;;;;5009974;28;20042;-61
2021/12/13 01:56:35;;;;;;;130.65;41.67;;;;;;;;;;5020279;28;20072;-61
2021/12/13 01:59:04;;;;;;;149.52;44.03;;;;;;;;;;5008466;28;20133;-61
2021/12/13 02:01:31;;;;;;;113.78;39.40;;;;;;;;;;5009440;28;20054;-63
2021/12/13 02:03:57;;;;;;;122.63;41.65;;;;;;;;;;5011177;28;20523;-61
2021/12/13 02:06:50;;;;;;;132.65;42.67;;;;;;;;;;5011423;28;20048;-61
2021/12/13 02:09:22;;;;;;;116.85;42.30;;;;;;;;;;5009220;28;20058;-62
2021/12/13 02:11:51;;;;;;;117.43;41.55;;;;;;;;;;5008995;28;20038;-61
2021/12/13 02:14:20;;;;;;;132.50;43.42;;;;;;;;;;5009646;28;20037;-61
2021/12/13 02:16:59;;;;;;;109.15;39.78;;;;;;;;;;5010811;28;20487;-62
2021/12/13 02:19:31;;;;;;;110.25;39.60;;;;;;;;;;5010446;28;20559;-62
2021/12/13 02:22:04;;;;;;;114.40;40.95;;;;;;;;;;5010922;28;20427;-61
2021/12/13 02:24:30;;;;;;;111.30;40.77;;;;;;;;;;5009596;28;20037;-62
2021/12/13 02:26:59;;;;;;;87.03;35.45;;;;;;;;;;5009751;28;20654;-61
2021/12/13 02:29:34;;;;;;;96.85;36.90;;;;;;;;;;5010788;28;20038;-61
2021/12/13 02:32:01;;;;;;;102.80;37.22;;;;;;;;;;5009508;28;20042;-62
2021/12/13 02:34:30;;;;;;;90.95;34.28;;;;;;;;;;5011186;28;20207;-61
2021/12/13 02:36:57;;;;;;;110.88;38.40;;;;;;;;;;4993469;28;20121;-61
2021/12/13 02:39:24;;;;;;;82.55;32.80;;;;;;;;;;5011100;28;20039;-62
2021/12/13 02:41:52;;;;;;;109.82;38.72;;;;;;;;;;5009665;28;20042;-62
2021/12/13 02:44:22;;;;;;;91.63;35.88;;;;;;;;;;5018082;28;20061;-61
2021/12/13 02:46:48;;;;;;;90.18;35.90;;;;;;;;;;5010693;28;20129;-61
2021/12/13 02:49:15;;;;;;;105.95;38.78;;;;;;;;;;5008268;28;20034;-63
2021/12/13 02:51:41;;;;;;;95.25;37.05;;;;;;;;;;5006747;28;20076;-62
2021/12/13 02:54:14;;;;;;;93.32;37.42;;;;;;;;;;5005750;28;20077;-62
2021/12/13 02:57:06;;;;;;;93.25;37.38;;;;;;;;;;5007712;28;20420;-62
2021/12/13 02:59:32;;;;;;;99.53;36.00;;;;;;;;;;5001524;28;20431;-62
2021/12/13 03:01:58;;;;;;;106.97;38.22;;;;;;;;;;5005792;28;20089;-63
2021/12/13 03:04:26;;;;;;;93.50;35.70;;;;;;;;;;5006911;28;20053;-62
2021/12/13 03:07:09;;;;;;;80.25;34.88;;;;;;;;;;5006037;28;20058;-61
2021/12/13 03:09:36;;;;;;;92.95;37.05;;;;;;;;;;5012578;28;20129;-62
2021/12/13 03:12:05;;;;;;;89.65;37.20;;;;;;;;;;4999033;28;20049;-62
2021/12/13 03:14:33;;;;;;;96.78;39.38;;;;;;;;;;5006007;28;20033;-62
2021/12/13 03:17:28;;;;;;;101.72;39.85;;;;;;;;;;5005508;28;20125;-62
2021/12/13 03:19:54;;;;;;;88.10;36.08;;;;;;;;;;5001608;28;20038;-62
2021/12/13 03:22:33;;;;;;;96.55;39.30;;;;;;;;;;5006176;28;20408;-61
2021/12/13 03:24:59;;;;;;;110.40;40.63;;;;;;;;;;5007094;28;20392;-62
2021/12/13 03:27:44;;;;;;;97.55;38.45;;;;;;;;;;5005736;28;20030;-61
2021/12/13 03:30:12;;;;;;;110.28;41.67;;;;;;;;;;5021104;28;20038;-61
2021/12/13 03:32:44;;;;;;;129.35;44.75;;;;;;;;;;5006735;28;20065;-61
2021/12/13 03:35:10;;;;;;;93.75;39.40;;;;;;;;;;5006779;28;20116;-62
2021/12/13 03:37:37;;;;;;;101.13;41.30;;;;;;;;;;5005783;28;20037;-62
2021/12/13 03:40:06;;;;;;;106.55;41.03;;;;;;;;;;5005856;28;20046;-62
2021/12/13 03:42:35;;;;;;;93.40;40.58;;;;;;;;;;4989330;28;20123;-61
2021/12/13 03:45:04;;;;;;;92.60;40.95;;;;;;;;;;4989031;28;20065;-62
2021/12/13 03:47:36;;;;;;;93.68;38.58;;;;;;;;;;4989477;28;20042;-61
2021/12/13 03:50:08;;;;;;;104.30;41.88;;;;;;;;;;5003752;28;20046;-62
2021/12/13 03:52:34;;;;;;;102.00;40.78;;;;;;;;;;5006884;28;20065;-62
2021/12/13 03:55:01;;;;;;;99.80;42.20;;;;;;;;;;5004846;28;20054;-63
2021/12/13 03:57:28;;;;;;;105.20;40.65;;;;;;;;;;5005377;28;20129;-62
2021/12/13 03:59:54;;;;;;;109.10;42.92;;;;;;;;;;5005539;28;20049;-61
2021/12/13 04:02:32;;;;;;;108.07;41.65;;;;;;;;;;5005593;28;20865;-62
2021/12/13 04:05:00;;;;;;;90.75;39.55;;;;;;;;;;5005932;28;20495;-61
2021/12/13 04:07:38;;;;;;;91.60;38.83;;;;;;;;;;5005483;28;20404;-61
2021/12/13 04:10:16;;;;;;;90.53;39.53;;;;;;;;;;5005453;28;20476;-63
2021/12/13 04:12:48;;;;;;;100.82;41.63;;;;;;;;;;4988135;28;20049;-61
2021/12/13 04:15:23;;;;;;;103.93;42.25;;;;;;;;;;5004490;28;20108;-62
2021/12/13 04:18:13;;;;;;;106.90;41.35;;;;;;;;;;5020897;28;20046;-62
2021/12/13 04:20:40;;;;;;;83.63;39.50;;;;;;;;;;5006902;28;20078;-62
2021/12/13 04:23:10;;;;;;;97.40;41.03;;;;;;;;;;5014241;28;20080;-62
2021/12/13 04:25:42;;;;;;;107.25;42.88;;;;;;;;;;5022422;28;20041;-63
2021/12/13 04:28:14;;;;;;;88.45;39.80;;;;;;;;;;5022187;28;20503;-62
2021/12/13 04:30:43;;;;;;;94.82;42.42;;;;;;;;;;5020939;28;20048;-63
2021/12/13 04:33:19;;;;;;;72.78;32.50;;;;;;;;;;5005963;28;20050;-63
2021/12/13 04:35:47;;;;;;;91.00;41.00;;;;;;;;;;5005837;28;20048;-62
2021/12/13 04:38:17;;;;;;;82.00;39.80;;;;;;;;;;5021194;28;20077;-61
2021/12/13 04:40:43;;;;;;;70.90;33.58;;;;;;;;;;5004325;28;20117;-60
2021/12/13 04:43:12;;;;;;;73.82;34.97;;;;;;;;;;5005653;28;20128;-61
2021/12/13 04:45:46;;;;;;;67.35;32.55;;;;;;;;;;5006118;28;20068;-63
2021/12/13 04:48:14;;;;;;;68.85;33.00;;;;;;;;;;5021303;28;20062;-62
2021/12/13 04:50:43;;;;;;;54.28;27.23;;;;;;;;;;5004671;28;20203;-62
2021/12/13 04:53:09;;;;;;;67.53;29.88;;;;;;;;;;5005027;28;20053;-62
2021/12/13 04:55:38;;;;;;;65.63;28.85;;;;;;;;;;5004806;28;20488;-62
2021/12/13 04:58:06;;;;;;;55.03;26.75;;;;;;;;;;5006481;28;20049;-62
2021/12/13 05:00:35;;;;;;;60.97;26.83;;;;;;;;;;5004718;28;20045;-62
2021/12/13 05:03:04;;;;;;;63.55;26.88;;;;;;;;;;5019843;28;20486;-63
2021/12/13 05:05:31;;;;;;;50.65;24.50;;;;;;;;;;5004931;28;20045;-61
2021/12/13 05:07:58;;;;;;;52.45;24.25;;;;;;;;;;5004906;28;20042;-62
2021/12/13 05:10:25;;;;;;;49.17;24.85;;;;;;;;;;5003934;28;20128;-61
2021/12/13 05:13:00;;;;;;;47.28;23.17;;;;;;;;;;5004963;28;20050;-62
2021/12/13 05:15:26;;;;;;;38.50;20.33;;;;;;;;;;4988265;28;20038;-61
2021/12/13 05:17:53;;;;;;;42.97;21.55;;;;;;;;;;5006481;28;20034;-62
2021/12/13 05:20:33;;;;;;;40.83;20.50;;;;;;;;;;5005170;28;20079;-61
2021/12/13 05:23:07;;;;;;;42.08;20.75;;;;;;;;;;5015541;28;20099;-62
2021/12/13 05:25:39;;;;;;;38.58;21.08;;;;;;;;;;5008235;28;20041;-62
2021/12/13 05:28:14;;;;;;;42.53;19.17;;;;;;;;;;5007807;28;20088;-61
2021/12/13 05:30:45;;;;;;;36.97;18.38;;;;;;;;;;4991659;28;20044;-62
2021/12/13 05:33:14;;;;;;;39.90;18.58;;;;;;;;;;5008084;28;20431;-61
2021/12/13 05:35:44;;;;;;;29.63;15.80;;;;;;;;;;5009061;28;20041;-61
2021/12/13 05:38:12;;;;;;;29.45;14.20;;;;;;;;;;5007955;28;20095;-61
2021/12/13 05:40:46;;;;;;;31.17;16.83;;;;;;;;;;5008358;28;20071;-62
2021/12/13 05:43:15;;;;;;;28.75;15.52;;;;;;;;;;5022714;28;20491;-63
2021/12/13 05:45:44;;;;;;;29.42;13.77;;;;;;;;;;4997059;28;20042;-62
2021/12/13 05:48:13;;;;;;;24.70;13.88;;;;;;;;;;5015025;28;20509;-62
2021/12/13 05:50:44;;;;;;;20.40;13.30;;;;;;;;;;5014639;28;20056;-62
2021/12/13 05:53:13;;;;;;;22.65;11.55;;;;;;;;;;4989617;28;20133;-63
2021/12/13 05:55:47;;;;;;;24.33;11.50;;;;;;;;;;5016925;28;20400;-62
2021/12/13 05:58:13;;;;;;;23.80;11.27;;;;;;;;;;5008278;28;20058;-62
2021/12/13 06:00:40;;;;;;;18.10;10.30;;;;;;;;;;5005252;28;20543;-64
2021/12/13 06:03:17;;;;;;;18.55;9.23;;;;;;;;;;5008763;28;20444;-62
2021/12/13 06:05:52;;;;;;;17.90;8.02;;;;;;;;;;5021534;28;20054;-63
2021/12/13 06:08:31;;;;;;;16.15;7.72;;;;;;;;;;5008615;28;20124;-62
2021/12/13 06:10:58;;;;;;;13.80;7.07;;;;;;;;;;5000541;28;20081;-62
2021/12/13 06:13:34;;;;;;;15.60;7.60;;;;;;;;;;5008717;28;20052;-61
2021/12/13 06:16:00;;;;;;;15.75;6.97;;;;;;;;;;5007706;28;20033;-62
2021/12/13 06:18:31;;;;;;;13.43;6.43;;;;;;;;;;5008014;28;20054;-61
2021/12/13 06:21:13;;;;;;;21.00;8.45;;;;;;;;;;5008750;28;20499;-62
2021/12/13 06:23:39;;;;;;;13.23;7.88;;;;;;;;;;5022020;28;20245;-61
2021/12/13 06:26:11;;;;;;;18.50;8.25;;;;;;;;;;5009321;28;20117;-61
2021/12/13 06:28:44;;;;;;;16.52;8.82;;;;;;;;;;5009540;28;20046;-61
2021/12/13 06:31:18;;;;;;;15.55;8.73;;;;;;;;;;5005635;28;20049;-61
2021/12/13 06:34:04;;;;;;;15.38;8.65;;;;;;;;;;5009984;28;20041;-61
2021/12/13 06:36:32;;;;;;;15.65;8.73;;;;;;;;;;4990670;28;20045;-61
2021/12/13 06:39:26;;;;;;;16.65;8.73;;;;;;;;;;5007323;28;20048;-62
2021/12/13 06:41:58;;;;;;;14.07;8.48;;;;;;;;;;5006648;28;20203;-63
2021/12/13 06:44:30;;;;;;;19.67;9.83;;;;;;;;;;5008759;28;20045;-62
2021/12/13 06:46:56;;;;;;;18.92;10.23;;;;;;;;;;4991930;28;20191;-63
2021/12/13 06:49:28;;;;;;;16.95;9.32;;;;;;;;;;5007980;28;20044;-62
2021/12/13 06:51:56;;;;;;;19.98;10.73;;;;;;;;;;5007938;28;20119;-62
2021/12/13 06:54:25;;;;;;;19.85;10.80;;;;;;;;;;5007081;28;20526;-63
2021/12/13 06:56:57;;;;;;;17.20;10.82;;;;;;;;;;5008641;28;20065;-62
2021/12/13 06:59:24;;;;;;;22.10;10.90;;;;;;;;;;5009916;28;20119;-62
2021/12/13 07:02:16;;;;;;;25.08;11.38;;;;;;;;;;5009335;28;20069;-62
2021/12/13 07:05:01;;;;;;;19.33;11.40;;;;;;;;;;5003530;28;20085;-61
2021/12/13 07:07:38;;;;;;;23.08;11.70;;;;;;;;;;5007059;28;20087;-64
2021/12/13 07:10:07;;;;;;;19.95;12.23;;;;;;;;;;5007193;28;20041;-62
2021/12/13 07:12:42;;;;;;;19.10;12.07;;;;;;;;;;5006861;28;20124;-62
2021/12/13 07:15:21;;;;;;;20.30;12.48;;;;;;;;;;5008427;28;20029;-62
2021/12/13 07:17:59;;;;;;;18.63;11.85;;;;;;;;;;5007771;28;20100;-62
2021/12/13 07:20:35;;;;;;;22.52;12.68;;;;;;;;;;5007703;28;20487;-64
2021/12/13 07:23:01;;;;;;;22.50;13.35;;;;;;;;;;5009215;28;20049;-63
2021/12/13 07:25:34;;;;;;;23.35;13.68;;;;;;;;;;5008837;28;20077;-63
2021/12/13 07:28:00;;;;;;;20.70;13.47;;;;;;;;;;5010195;28;20042;-63
2021/12/13 07:30:28;;;;;;;21.92;12.93;;;;;;;;;;5008461;28;20038;-63
2021/12/13 07:32:58;;;;;;;20.33;12.65;;;;;;;;;;5009918;28;20499;-63
2021/12/13 07:35:24;;;;;;;23.45;12.65;;;;;;;;;;5010167;28;20396;-63
2021/12/13 07:37:52;;;;;;;20.05;12.45;;;;;;;;;;5007919;28;20400;-63
2021/12/13 07:40:21;;;;;;;18.60;12.35;;;;;;;;;;5010143;28;20077;-62
2021/12/13 07:43:06;;;;;;;24.27;14.77;;;;;;;;;;5008911;28;20399;-62
2021/12/13 07:45:39;;;;;;;21.60;14.02;;;;;;;;;;5009852;28;20597;-62
2021/12/13 07:48:07;;;;;;;20.87;12.97;;;;;;;;;;5009086;28;20029;-63
2021/12/13 07:50:34;;;;;;;23.10;13.30;;;;;;;;;;5017482;28;20472;-63
2021/12/13 07:53:02;;;;;;;21.17;13.95;;;;;;;;;;5006789;28;20049;-63
2021/12/13 07:55:29;;;;;;;22.48;13.98;;;;;;;;;;5007897;28;20125;-61
2021/12/13 07:57:57;;;;;;;22.15;14.40;;;;;;;;;;5006847;28;20496;-62
2021/12/13 08:00:28;;;;;;;24.95;14.95;;;;;;;;;;5006153;28;20400;-61
2021/12/13 08:02:56;;;;;;;22.77;15.15;;;;;;;;;;5022621;28;20050;-62
2021/12/13 08:05:24;;;;;;;22.90;15.10;;;;;;;;;;5006376;28;20365;-62
2021/12/13 08:07:58;;;;;;;22.58;14.93;;;;;;;;;;5006339;28;20088;-62
2021/12/13 08:10:30;;;;;;;23.88;16.00;;;;;;;;;;5006240;28;20108;-61
2021/12/13 08:13:00;;;;;;;23.83;15.75;;;;;;;;;;5006161;28;20083;-61
2021/12/13 08:15:34;;;;;;;26.52;16.33;;;;;;;;;;5006110;28;20038;-62
2021/12/13 08:18:12;;;;;;;24.10;16.45;;;;;;;;;;5006685;28;20054;-64
2021/12/13 08:20:43;;;;;;;24.17;16.15;;;;;;;;;;5006276;28;20472;-63
2021/12/13 08:23:24;;;;;;;20.75;16.08;;;;;;;;;;5000604;28;20041;-64
2021/12/13 08:25:53;;;;;;;26.55;16.17;;;;;;;;;;5011199;28;20050;-63
2021/12/13 08:28:20;;;;;;;27.40;16.48;;;;;;;;;;4989907;28;20108;-63
2021/12/13 08:30:51;;;;;;;25.42;16.27;;;;;;;;;;5010718;28;20046;-62
2021/12/13 08:33:20;;;;;;;28.15;17.95;;;;;;;;;;5007148;28;20125;-63
2021/12/13 08:36:02;;;;;;;25.52;16.10;;;;;;;;;;5006209;28;20125;-63
2021/12/13 08:38:28;;;;;;;22.35;16.17;;;;;;;;;;5005791;28;20084;-63
2021/12/13 08:40:54;;;;;;;24.75;17.20;;;;;;;;;;5005238;28;20073;-63
2021/12/13 08:43:34;;;;;;;25.88;17.73;;;;;;;;;;5006488;28;20046;-63
2021/12/13 08:46:03;;;;;;;23.50;16.95;;;;;;;;;;4990206;28;20042;-63
2021/12/13 08:48:29;;;;;;;23.95;17.75;;;;;;;;;;5022934;28;20073;-63
2021/12/13 08:50:57;;;;;;;28.42;19.27;;;;;;;;;;4990549;28;20056;-63
2021/12/13 08:53:38;;;;;;;24.45;18.85;;;;;;;;;;5006441;28;20049;-63
2021/12/13 08:56:16;;;;;;;25.88;18.40;;;;;;;;;;5006754;28;20096;-63
2021/12/13 08:58:54;;;;;;;27.45;19.50;;;;;;;;;;5003277;28;20045;-63
2021/12/13 09:01:20;;;;;;;26.20;20.05;;;;;;;;;;5008337;28;20112;-63
2021/12/13 09:03:52;;;;;;;29.60;20.75;;;;;;;;;;5007026;28;20105;-63
2021/12/13 09:06:18;;;;;;;31.00;21.27;;;;;;;;;;5008658;28;20077;-64
2021/12/13 09:08:44;;;;;;;34.58;22.27;;;;;;;;;;5008635;28;20045;-63
2021/12/13 09:11:13;;;;;;;31.65;22.00;;;;;;;;;;5008191;28;20490;-62
2021/12/13 09:13:40;;;;;;;33.40;23.50;;;;;;;;;;5010319;28;20037;-62
2021/12/13 09:16:06;;;;;;;34.55;23.83;;;;;;;;;;5010621;28;20052;-63
2021/12/13 09:18:32;;;;;;;30.38;23.13;;;;;;;;;;5027415;28;20042;-62
2021/12/13 09:21:00;;;;;;;30.40;21.83;;;;;;;;;;5010390;28;20081;-62
2021/12/13 09:23:28;;;;;;;31.38;25.13;;;;;;;;;;5010042;28;20052;-63
2021/12/13 09:26:14;;;;;;;30.35;22.83;;;;;;;;;;5009844;28;20045;-63
2021/12/13 09:28:59;;;;;;;32.03;25.05;;;;;;;;;;5008576;28;20046;-62
2021/12/13 09:31:36;;;;;;;34.58;25.13;;;;;;;;;;5009640;28;20089;-62
2021/12/13 09:34:07;;;;;;;28.73;22.27;;;;;;;;;;4990916;28;20164;-63
2021/12/13 09:36:37;;;;;;;34.95;24.38;;;;;;;;;;5007524;28;20121;-63
2021/12/13 09:39:04;;;;;;;33.03;25.35;;;;;;;;;;4993004;28;20046;-62
2021/12/13 09:41:37;;;;;;;32.58;26.08;;;;;;;;;;4998076;28;20049;-63
2021/12/13 09:44:06;;;;;;;33.47;25.65;;;;;;;;;;5009094;28;20115;-62
2021/12/13 09:46:45;;;;;;;43.35;27.88;;;;;;;;;;5008606;28;20045;-62
2021/12/13 09:49:20;;;;;;;33.38;26.73;;;;;;;;;;5011267;28;20050;-62
2021/12/13 09:52:06;;;;;;;29.33;23.83;;;;;;;;;;4996221;28;20041;-63
2021/12/13 09:54:37;;;;;;;35.20;26.75;;;;;;;;;;5007983;28;20430;-61
2021/12/13 09:57:05;;;;;;;35.17;26.65;;;;;;;;;;5019642;28;20137;-61
2021/12/13 09:59:52;;;;;;;31.58;25.65;;;;;;;;;;5011326;28;20041;-61
2021/12/13 10:02:26;;;;;;;32.63;27.30;;;;;;;;;;5010712;28;20053;-61
2021/12/13 10:04:53;;;;;;;32.17;26.15;;;;;;;;;;5011715;28;20042;-60
2021/12/13 10:07:29;;;;;;;33.28;26.45;;;;;;;;;;5011740;28;20041;-60
2021/12/13 10:10:00;;;;;;;29.98;26.55;;;;;;;;;;5010166;28;20056;-60
2021/12/13 10:12:30;;;;;;;32.95;26.33;;;;;;;;;;5013248;28;20045;-61
2021/12/13 10:15:00;;;;;;;33.50;25.98;;;;;;;;;;5012799;28;20081;-61
2021/12/13 10:17:29;;;;;;;33.35;25.75;;;;;;;;;;5012709;28;20582;-61
2021/12/13 10:19:57;;;;;;;29.67;23.35;;;;;;;;;;5013051;28;20048;-61
2021/12/13 10:22:27;;;;;;;28.20;23.10;;;;;;;;;;5012637;28;20439;-61
2021/12/13 10:24:58;;;;;;;28.08;23.15;;;;;;;;;;5011756;28;20076;-61
2021/12/13 10:27:24;;;;;;;29.13;23.45;;;;;;;;;;5012765;28;20049;-62
2021/12/13 10:29:53;;;;;;;29.98;24.50;;;;;;;;;;5011505;28;20129;-61
2021/12/13 10:32:27;;;;;;;29.80;23.85;;;;;;;;;;5012903;28;20061;-61
2021/12/13 10:34:56;;;;;;;28.40;23.50;;;;;;;;;;5011540;28;20076;-61
2021/12/13 10:37:24;;;;;;;30.63;25.15;;;;;;;;;;5011801;28;20049;-61
2021/12/13 10:39:54;;;;;;;29.95;22.50;;;;;;;;;;4995008;28;20046;-61
2021/12/13 10:42:25;;;;;;;26.98;23.10;;;;;;;;;;4994905;28;20048;-61
2021/12/13 10:44:52;;;;;;;30.35;24.08;;;;;;;;;;5012436;28;20078;-61
2021/12/13 10:47:23;;;;;;;26.27;22.25;;;;;;;;;;5010892;28;20052;-61
2021/12/13 10:49:50;;;;;;;28.48;21.90;;;;;;;;;;5010676;28;20168;-61
2021/12/13 10:52:23;;;;;;;25.67;22.08;;;;;;;;;;5011322;28;20046;-61
2021/12/13 10:54:51;;;;;;;28.35;21.95;;;;;;;;;;5010515;28;20085;-61
2021/12/13 10:57:22;;;;;;;25.95;20.15;;;;;;;;;;5010687;28;20052;-61
2021/12/13 10:59:49;;;;;;;24.52;21.70;;;;;;;;;;5011912;28;20550;-61
2021/12/13 11:02:18;;;;;;;23.95;20.42;;;;;;;;;;5010832;28;20373;-61
2021/12/13 11:04:47;;;;;;;23.08;18.63;;;;;;;;;;5011427;28;20042;-61
2021/12/13 11:07:13;;;;;;;22.52;19.20;;;;;;;;;;5010790;28;20041;-61
2021/12/13 11:09:41;;;;;;;21.50;18.73;;;;;;;;;;5010177;28;20400;-61
2021/12/13 11:12:34;;;;;;;23.20;17.45;;;;;;;;;;5015977;28;20042;-61
2021/12/13 11:15:02;;;;;;;21.60;18.52;;;;;;;;;;5009675;28;20042;-61
2021/12/13 11:17:30;;;;;;;23.90;18.90;;;;;;;;;;5008846;28;20165;-61
2021/12/13 11:19:57;;;;;;;22.88;17.95;;;;;;;;;;5008628;28;20046;-61
2021/12/13 11:22:26;;;;;;;19.95;15.95;;;;;;;;;;5009353;28;20463;-61
2021/12/13 11:24:55;;;;;;;23.40;17.50;;;;;;;;;;5011892;28;20396;-61
2021/12/13 11:27:23;;;;;;;24.38;17.70;;;;;;;;;;5010486;28;20049;-61
2021/12/13 11:29:52;;;;;;;21.48;18.10;;;;;;;;;;5011806;28;20045;-60
2021/12/13 11:32:30;;;;;;;21.45;16.75;;;;;;;;;;5011007;28;20546;-60
2021/12/13 11:35:05;;;;;;;20.23;17.27;;;;;;;;;;5010550;28;20718;-61
2021/12/13 11:37:50;;;;;;;22.98;16.80;;;;;;;;;;5008054;28;20045;-61
2021/12/13 11:40:35;;;;;;;19.73;17.30;;;;;;;;;;5003357;28;20037;-62
2021/12/13 11:43:07;;;;;;;20.08;17.10;;;;;;;;;;5008334;28;20045;-61
2021/12/13 11:45:46;;;;;;;18.90;16.23;;;;;;;;;;5009641;28;20504;-61
2021/12/13 11:48:23;;;;;;;19.95;15.32;;;;;;;;;;5012445;28;20081;-60
2021/12/13 11:51:07;;;;;;;20.40;15.85;;;;;;;;;;5010369;28;20125;-61
2021/12/13 11:53:55;;;;;;;20.27;15.15;;;;;;;;;;5009580;28;20132;-60
2021/12/13 11:56:46;;;;;;;19.30;15.02;;;;;;;;;;5026178;28;20453;-60
2021/12/13 11:59:25;;;;;;;20.30;15.40;;;;;;;;;;5009627;28;20060;-61
2021/12/13 12:02:01;;;;;;;18.13;13.45;;;;;;;;;;5026015;28;20056;-61
2021/12/13 12:04:46;;;;;;;15.63;13.57;;;;;;;;;;5010269;28;20054;-61
2021/12/13 12:07:15;;;;;;;15.48;13.45;;;;;;;;;;5025841;28;20092;-61
2021/12/13 12:09:56;;;;;;;19.88;14.23;;;;;;;;;;5010879;28;20045;-61
2021/12/13 12:12:41;;;;;;;18.15;13.65;;;;;;;;;;5010658;28;20033;-61
2021/12/13 12:15:09;;;;;;;16.95;13.63;;;;;;;;;;5010465;28;20476;-61
2021/12/13 12:17:35;;;;;;;17.50;14.55;;;;;;;;;;5025722;28;20044;-61
2021/12/13 12:20:02;;;;;;;19.95;14.63;;;;;;;;;;5009249;28;20038;-61
2021/12/13 12:22:36;;;;;;;18.77;14.70;;;;;;;;;;5008572;28;20095;-61
2021/12/13 12:25:03;;;;;;;20.45;15.43;;;;;;;;;;5008305;28;20128;-61
2021/12/13 12:27:35;;;;;;;18.02;14.43;;;;;;;;;;5007674;28;20063;-61
2021/12/13 12:30:05;;;;;;;19.95;16.15;;;;;;;;;;5008016;28;20196;-61
2021/12/13 12:32:33;;;;;;;17.60;14.73;;;;;;;;;;5007806;28;20052;-61
2021/12/13 12:35:02;;;;;;;17.95;14.65;;;;;;;;;;5012297;28;20045;-61
2021/12/13 12:37:31;;;;;;;18.85;14.43;;;;;;;;;;5013453;28;20077;-61
2021/12/13 12:40:09;;;;;;;18.27;15.48;;;;;;;;;;5012048;28;20042;-62
2021/12/13 12:42:46;;;;;;;19.20;15.23;;;;;;;;;;5011887;28;20046;-62
2021/12/13 12:45:15;;;;;;;20.42;15.02;;;;;;;;;;5011367;28;20061;-62
2021/12/13 12:47:47;;;;;;;21.33;15.77;;;;;;;;;;5012143;28;20475;-62
2021/12/13 12:50:34;;;;;;;24.20;17.65;;;;;;;;;;5012123;28;20496;-61
2021/12/13 12:53:05;;;;;;;24.52;17.60;;;;;;;;;;5029494;28;20076;-61
2021/12/13 12:55:43;;;;;;;26.77;19.38;;;;;;;;;;5013150;28;20559;-61
2021/12/13 12:58:11;;;;;;;25.63;18.83;;;;;;;;;;5029818;28;20661;-62
2021/12/13 13:00:38;;;;;;;25.65;19.48;;;;;;;;;;5013169;28;20048;-62
2021/12/13 13:03:04;;;;;;;27.40;20.33;;;;;;;;;;5014449;28;20128;-61
2021/12/13 13:05:31;;;;;;;32.40;22.00;;;;;;;;;;5013154;28;20050;-61
2021/12/13 13:07:57;;;;;;;31.10;22.27;;;;;;;;;;5014576;28;20064;-61
2021/12/13 13:10:25;;;;;;;30.52;21.67;;;;;;;;;;5014420;28;20052;-61
2021/12/13 13:12:53;;;;;;;29.70;22.13;;;;;;;;;;5028301;28;20053;-62
2021/12/13 13:15:22;;;;;;;29.98;20.60;;;;;;;;;;5011063;28;20103;-62
2021/12/13 13:17:51;;;;;;;30.02;21.65;;;;;;;;;;5011335;28;20041;-62
2021/12/13 13:20:43;;;;;;;35.58;23.15;;;;;;;;;;5011363;28;20096;-62
2021/12/13 13:23:10;;;;;;;35.88;24.63;;;;;;;;;;5011492;28;20149;-62
2021/12/13 13:25:40;;;;;;;32.78;24.33;;;;;;;;;;5013536;28;20543;-62
2021/12/13 13:28:35;;;;;;;29.65;19.73;;;;;;;;;;5012355;28;20491;-62
2021/12/13 13:31:20;;;;;;;38.70;25.58;;;;;;;;;;5008501;28;20490;-61
2021/12/13 13:33:48;;;;;;;38.67;24.88;;;;;;;;;;5009414;28;20116;-61
2021/12/13 13:36:16;;;;;;;34.92;24.65;;;;;;;;;;5010360;28;20495;-62
2021/12/13 13:38:43;;;;;;;38.90;25.98;;;;;;;;;;5009572;28;20069;-62
2021/12/13 13:41:10;;;;;;;39.47;23.88;;;;;;;;;;5003894;28;20042;-63
2021/12/13 13:43:39;;;;;;;33.40;24.02;;;;;;;;;;5009257;28;20072;-62
2021/12/13 13:46:05;;;;;;;37.00;24.75;;;;;;;;;;4992925;28;20065;-62
2021/12/13 13:48:35;;;;;;;31.95;22.75;;;;;;;;;;4990167;28;20097;-61
2021/12/13 13:51:03;;;;;;;29.80;22.45;;;;;;;;;;4992596;28;20126;-61
2021/12/13 13:53:31;;;;;;;31.65;21.92;;;;;;;;;;4990683;28;20366;-61
2021/12/13 13:55:59;;;;;;;33.83;22.20;;;;;;;;;;4989892;28;20050;-61
2021/12/13 13:58:25;;;;;;;30.05;21.58;;;;;;;;;;5006566;28;20403;-61
2021/12/13 14:01:00;;;;;;;27.75;20.88;;;;;;;;;;5009009;28;20042;-61
2021/12/13 14:03:33;;;;;;;32.72;22.27;;;;;;;;;;5009154;28;20475;-62
2021/12/13 14:06:01;;;;;;;29.15;22.00;;;;;;;;;;5008551;28;20079;-62
2021/12/13 14:08:28;;;;;;;34.95;24.05;;;;;;;;;;5008153;28;20311;-62
2021/12/13 14:10:55;;;;;;;39.58;25.00;;;;;;;;;;5009443;28;20073;-62
2021/12/13 14:13:23;;;;;;;34.00;24.20;;;;;;;;;;5009417;28;20103;-63
2021/12/13 14:15:51;;;;;;;32.50;22.65;;;;;;;;;;5009181;28;20041;-63
2021/12/13 14:18:23;;;;;;;33.47;24.60;;;;;;;;;;5009430;28;20436;-63
2021/12/13 14:20:50;;;;;;;30.70;21.95;;;;;;;;;;5010716;28;20030;-62
2021/12/13 14:23:30;;;;;;;34.72;24.20;;;;;;;;;;5009037;28;20041;-62
2021/12/13 14:25:56;;;;;;;29.90;21.45;;;;;;;;;;4996910;28;20097;-62
2021/12/13 14:28:43;;;;;;;32.13;22.20;;;;;;;;;;5019217;28;20056;-63
2021/12/13 14:31:09;;;;;;;33.90;24.70;;;;;;;;;;5002168;28;20443;-62
2021/12/13 14:33:39;;;;;;;33.47;24.00;;;;;;;;;;4992508;28;20049;-62
2021/12/13 14:36:10;;;;;;;32.20;22.52;;;;;;;;;;5009012;28;20038;-63
2021/12/13 14:38:37;;;;;;;33.47;23.00;;;;;;;;;;5009611;28;20038;-62
2021/12/13 14:41:06;;;;;;;32.92;20.58;;;;;;;;;;5008716;28;20046;-62
2021/12/13 14:43:33;;;;;;;34.17;22.38;;;;;;;;;;5006253;28;20038;-62
2021/12/13 14:46:01;;;;;;;31.63;22.73;;;;;;;;;;5008544;28;20451;-62